Terminal Aerodrome Forecast
Issued by NWS

Home | Current Version | Previous Version | Text Only | Print | Product List | Glossary On
Versions: 1 2 3 4 5 6 7 8 9 10 11 12 13 14 15 16 17 18 19 20 21 22 23 24 25 26 27 28 29 30 31 32 33 34 35 36
000
FTUS44 KHGX 291130
TAFIAH
TAF
KIAH 291130Z 2912/3018 16010KT P6SM FEW010 SCT022 OVC100
     FM291500 14014KT P6SM SCT015 BKN025
     FM291800 14016G26KT P6SM VCSH SCT025 BKN050
     FM300000 16017KT P6SM VCTS BKN035CB
     FM300600 16014KT 5SM TSRA BKN025CB
     FM301400 17009KT P6SM VCTS BKN015CB=

USA.gov is the U.S. government's official web portal to all federal, state and local government web resources and services.